Time;durP1;ratioP1;P1;durP2;ratioP2;P2;SDS_P1;SDS_P2;PMS_P1;PMS_P2;Temp;Humidity;BMP_temperature;BMP_pressure;BME280_temperature;BME280_humidity;BME280_pressure;Samples;Min_cycle;Max_cycle;Signal;HPM_P1;HPM_P2
2022/12/24 00:00:59;;;;;;;3.60;2.55;;;;;;;;;;5030670;28;20060;-76
2022/12/24 00:03:26;;;;;;;3.30;2.83;;;;;;;;;;5031287;28;20061;-76
2022/12/24 00:05:53;;;;;;;3.30;2.70;;;;;;;;;;5031458;28;20080;-76
2022/12/24 00:08:20;;;;;;;4.70;2.58;;;;;;;;;;5031423;28;20631;-76
2022/12/24 00:10:49;;;;;;;3.28;2.60;;;;;;;;;;5031661;28;20061;-76
2022/12/24 00:13:18;;;;;;;3.50;2.60;;;;;;;;;;5031228;28;20049;-76
2022/12/24 00:15:45;;;;;;;3.58;2.80;;;;;;;;;;5022050;28;20434;-76
2022/12/24 00:18:12;;;;;;;3.72;3.00;;;;;;;;;;5011627;28;20410;-76
2022/12/24 00:20:39;;;;;;;2.70;2.40;;;;;;;;;;5011743;28;20473;-76
2022/12/24 00:23:06;;;;;;;3.90;2.78;;;;;;;;;;5010981;28;20455;-76
2022/12/24 00:25:33;;;;;;;3.10;2.60;;;;;;;;;;5011430;28;20482;-76
2022/12/24 00:28:00;;;;;;;3.17;2.45;;;;;;;;;;5017308;28;20053;-76
2022/12/24 00:30:28;;;;;;;2.75;2.33;;;;;;;;;;5030562;28;20387;-76
2022/12/24 00:32:56;;;;;;;2.92;2.35;;;;;;;;;;5030816;28;20128;-76
2022/12/24 00:35:23;;;;;;;3.25;2.47;;;;;;;;;;5030539;28;20061;-76
2022/12/24 00:37:50;;;;;;;2.50;2.20;;;;;;;;;;5030634;28;20144;-76
2022/12/24 00:40:17;;;;;;;3.13;2.40;;;;;;;;;;5031019;28;20060;-76
2022/12/24 00:42:44;;;;;;;3.80;2.72;;;;;;;;;;5030625;28;20509;-76
2022/12/24 00:45:11;;;;;;;3.78;2.55;;;;;;;;;;5030865;28;20049;-76
2022/12/24 00:47:40;;;;;;;2.78;2.40;;;;;;;;;;5030609;28;20068;-76
2022/12/24 00:50:07;;;;;;;3.17;2.47;;;;;;;;;;5031142;28;20059;-76
2022/12/24 00:52:34;;;;;;;3.10;2.58;;;;;;;;;;5030692;28;20049;-76
2022/12/24 00:55:01;;;;;;;2.60;2.25;;;;;;;;;;5030724;28;20057;-75
2022/12/24 00:57:28;;;;;;;3.20;2.75;;;;;;;;;;5030753;28;20064;-76
2022/12/24 00:59:56;;;;;;;2.80;2.28;;;;;;;;;;5030598;28;20057;-76
2022/12/24 01:02:23;;;;;;;2.90;2.50;;;;;;;;;;5029687;28;20140;-76
2022/12/24 01:07:36;;;;;;;3.78;2.55;;;;;;;;;;5030423;28;20057;-74
2022/12/24 01:10:03;;;;;;;2.85;2.40;;;;;;;;;;5030692;28;20053;-76
2022/12/24 01:12:30;;;;;;;2.83;2.35;;;;;;;;;;5030253;28;20121;-75
2022/12/24 01:14:57;;;;;;;5.53;2.47;;;;;;;;;;5029812;28;20056;-76
2022/12/24 01:17:24;;;;;;;4.25;2.50;;;;;;;;;;5030366;28;20067;-75
2022/12/24 01:19:53;;;;;;;3.22;2.60;;;;;;;;;;5030366;28;20128;-76
2022/12/24 01:22:20;;;;;;;3.30;2.20;;;;;;;;;;5029940;28;20050;-76
2022/12/24 01:24:47;;;;;;;2.80;2.33;;;;;;;;;;5030538;28;20081;-76
2022/12/24 01:27:14;;;;;;;2.60;2.20;;;;;;;;;;5031528;28;20129;-76
2022/12/24 01:29:41;;;;;;;2.50;2.10;;;;;;;;;;5031429;28;20045;-76
2022/12/24 01:32:08;;;;;;;3.22;2.70;;;;;;;;;;5029394;28;20068;-76
2022/12/24 01:34:35;;;;;;;2.60;2.08;;;;;;;;;;5030066;28;20410;-76
2022/12/24 01:37:04;;;;;;;2.80;2.53;;;;;;;;;;5029953;28;20413;-76
2022/12/24 01:39:31;;;;;;;3.05;2.30;;;;;;;;;;5030449;28;20415;-75
2022/12/24 01:44:42;;;;;;;3.00;2.50;;;;;;;;;;5030485;28;20069;-76
2022/12/24 01:47:11;;;;;;;2.67;1.95;;;;;;;;;;5029615;28;20085;-76
2022/12/24 01:49:39;;;;;;;3.00;2.38;;;;;;;;;;5030439;28;20144;-76
2022/12/24 01:52:08;;;;;;;2.75;2.30;;;12.90;68.60;;;;;;5029845;28;20079;-76
2022/12/24 01:54:36;;;;;;;2.75;2.33;;;;;;;;;;5030084;28;20152;-75
2022/12/24 01:57:03;;;;;;;2.50;2.30;;;;;;;;;;5030156;28;20060;-76
2022/12/24 01:59:30;;;;;;;2.47;2.20;;;;;;;;;;5030394;28;20136;-75
2022/12/24 02:01:57;;;;;;;2.70;2.30;;;;;;;;;;5031928;28;20049;-76
2022/12/24 02:04:26;;;;;;;3.80;2.30;;;;;;;;;;5033305;28;20056;-76
2022/12/24 02:06:53;;;;;;;2.90;2.30;;;;;;;;;;5033916;28;20081;-76
2022/12/24 02:09:22;;;;;;;2.42;2.17;;;;;;;;;;5033770;28;20057;-76
2022/12/24 02:11:49;;;;;;;2.50;2.30;;;;;;;;;;5033860;28;20561;-76
2022/12/24 02:14:16;;;;;;;2.80;2.40;;;;;;;;;;5034574;28;20056;-76
2022/12/24 02:16:46;;;;;;;2.83;2.40;;;;;;;;;;5021479;28;20064;-76
2022/12/24 02:19:18;;;;;;;2.83;2.25;;;;;;;;;;5013844;28;20065;-76
2022/12/24 02:21:55;;;;;;;2.58;2.10;;;;;;;;;;5013813;28;20476;-76
2022/12/24 02:24:28;;;;;;;2.63;2.13;;;;;;;;;;5013367;28;20141;-76
2022/12/24 02:27:12;;;;;;;2.35;2.15;;;13.00;70.90;;;;;;5013769;28;20141;-76
2022/12/24 02:30:15;;;;;;;3.08;2.30;;;13.00;70.80;;;;;;5032418;28;20053;-76
2022/12/24 02:32:56;;;;;;;3.00;2.15;;;12.90;69.80;;;;;;4956474;28;20050;-76
2022/12/24 02:35:24;;;;;;;2.38;2.00;;;;;;;;;;5024990;28;20061;-76
2022/12/24 02:37:53;;;;;;;3.35;2.40;;;;;;;;;;5032330;28;20128;-76
2022/12/24 02:40:21;;;;;;;2.42;2.10;;;13.00;71.10;;;;;;5033170;28;20136;-76
2022/12/24 02:42:49;;;;;;;2.30;1.77;;;;;;;;;;5032699;28;20060;-76
2022/12/24 02:45:18;;;;;;;2.67;2.20;;;;;;;;;;5028824;28;20136;-76
2022/12/24 02:47:45;;;;;;;2.45;2.10;;;;;;;;;;5017536;28;20132;-76
2022/12/24 02:50:12;;;;;;;2.47;2.10;;;;;;;;;;5033111;28;20136;-76
2022/12/24 02:52:40;;;;;;;2.78;2.20;;;;;;;;;;5032770;28;20483;-76
2022/12/24 02:55:08;;;;;;;2.28;2.05;;;;;;;;;;5032913;28;20106;-75
2022/12/24 02:57:39;;;;;;;2.00;1.80;;;;;;;;;;5032843;28;20491;-75
2022/12/24 03:00:07;;;;;;;2.72;2.13;;;;;;;;;;5032359;28;20054;-75
2022/12/24 03:02:39;;;;;;;2.45;2.05;;;;;;;;;;5032579;28;20128;-75
2022/12/24 03:05:13;;;;;;;2.30;1.90;;;12.90;70.90;;;;;;5032706;28;20550;-75
2022/12/24 03:07:43;;;;;;;1.95;1.70;;;12.90;70.90;;;;;;5032726;28;20049;-75
2022/12/24 03:10:13;;;;;;;2.00;1.80;;;;;;;;;;5032483;28;20056;-75
2022/12/24 03:12:41;;;;;;;2.63;1.95;;;;;;;;;;5031818;28;20128;-75
2022/12/24 03:15:09;;;;;;;2.53;1.92;;;;;;;;;;5020456;28;20060;-75
2022/12/24 03:17:37;;;;;;;2.17;1.90;;;;;;;;;;5012578;28;20073;-76
2022/12/24 03:20:05;;;;;;;2.00;1.80;;;;;;;;;;5012639;28;20058;-75
2022/12/24 03:22:32;;;;;;;2.72;2.10;;;;;;;;;;5012174;28;20045;-75
2022/12/24 03:24:59;;;;;;;2.65;2.00;;;;;;;;;;5013714;28;20137;-75
2022/12/24 03:27:26;;;;;;;2.45;1.90;;;;;;;;;;5013880;28;20068;-75
2022/12/24 03:29:53;;;;;;;2.13;1.85;;;;;;;;;;5031330;28;20056;-75
2022/12/24 03:32:24;;;;;;;2.00;1.80;;;;;;;;;;5031843;28;20049;-75
2022/12/24 03:34:52;;;;;;;2.33;1.60;;;;;;;;;;5032361;28;20059;-75
2022/12/24 03:37:19;;;;;;;2.35;2.00;;;;;;;;;;5031286;28;20442;-75
2022/12/24 03:39:46;;;;;;;2.42;1.92;;;;;;;;;;5032289;28;20141;-76
2022/12/24 03:42:13;;;;;;;2.30;1.90;;;;;;;;;;5031609;28;20049;-75
2022/12/24 03:44:41;;;;;;;3.13;1.60;;;;;;;;;;5031632;28;20395;-75
2022/12/24 03:47:08;;;;;;;3.90;1.70;;;;;;;;;;5031944;28;20406;-75
2022/12/24 03:49:35;;;;;;;3.20;1.75;;;;;;;;;;5032129;28;20483;-75
2022/12/24 03:52:03;;;;;;;1.90;1.70;;;;;;;;;;5031790;28;20513;-77
2022/12/24 03:54:30;;;;;;;1.90;1.70;;;;;;;;;;5031769;28;20414;-75
2022/12/24 03:56:57;;;;;;;1.77;1.60;;;;;;;;;;5031691;28;20150;-75
2022/12/24 03:59:26;;;;;;;2.45;1.80;;;;;;;;;;5012856;28;20145;-75
2022/12/24 04:01:53;;;;;;;1.90;1.70;;;;;;;;;;5012127;28;20513;-75
2022/12/24 04:04:20;;;;;;;2.05;1.65;;;;;;;;;;5011557;28;20061;-75
2022/12/24 04:06:47;;;;;;;2.05;1.80;;;;;;;;;;5011832;28;20057;-75
2022/12/24 04:09:16;;;;;;;2.03;1.70;;;;;;;;;;5011975;28;20057;-75
2022/12/24 04:11:43;;;;;;;1.50;1.40;;;;;;;;;;5013022;28;20049;-75
2022/12/24 04:14:10;;;;;;;1.63;1.33;;;;;;;;;;5030109;28;20120;-76
2022/12/24 04:16:37;;;;;;;1.77;1.60;;;;;;;;;;5031415;28;20053;-75
2022/12/24 04:19:04;;;;;;;1.90;1.58;;;;;;;;;;5031642;28;20061;-75
2022/12/24 04:21:31;;;;;;;1.55;1.40;;;;;;;;;;5031504;28;20144;-75
2022/12/24 04:23:58;;;;;;;1.60;1.40;;;;;;;;;;5030692;28;20068;-75
2022/12/24 04:26:27;;;;;;;1.67;1.33;;;;;;;;;;5029405;28;20128;-75
2022/12/24 04:28:54;;;;;;;1.63;1.40;;;;;;;;;;5024530;28;20052;-76
2022/12/24 04:31:21;;;;;;;1.58;1.33;;;;;;;;;;5031385;28;20132;-75
2022/12/24 04:33:48;;;;;;;2.28;1.50;;;;;;;;;;5031172;28;20051;-77
2022/12/24 04:36:16;;;;;;;1.90;1.50;;;;;;;;;;5030740;28;20057;-75
2022/12/24 04:38:43;;;;;;;2.00;1.40;;;;;;;;;;5030992;28;20499;-75
2022/12/24 04:41:15;;;;;;;1.60;1.40;;;12.90;70.40;;;;;;5030855;28;20146;-75
2022/12/24 04:43:43;;;;;;;1.63;1.48;;;;;;;;;;5030875;28;20413;-76
2022/12/24 04:46:13;;;;;;;1.50;1.30;;;;;;;;;;5031076;28;20067;-75
2022/12/24 04:48:40;;;;;;;3.78;1.50;;;;;;;;;;5030738;28;20502;-76
2022/12/24 04:51:07;;;;;;;2.03;1.45;;;;;;;;;;5031021;28;20512;-75
2022/12/24 04:53:34;;;;;;;1.88;1.30;;;;;;;;;;5030785;28;20136;-76
2022/12/24 04:56:02;;;;;;;1.65;1.40;;;;;;;;;;5030380;28;20053;-75
2022/12/24 04:58:29;;;;;;;1.83;1.40;;;;;;;;;;5030701;28;20057;-76
2022/12/24 05:00:57;;;;;;;1.60;1.40;;;;;;;;;;5030947;28;20053;-75
2022/12/24 05:03:24;;;;;;;1.95;1.27;;;;;;;;;;5030240;28;20480;-74
2022/12/24 05:05:51;;;;;;;1.73;1.27;;;;;;;;;;5030253;28;20455;-75
2022/12/24 05:08:18;;;;;;;1.42;1.13;;;;;;;;;;5030661;28;20132;-75
2022/12/24 05:10:45;;;;;;;1.60;1.30;;;;;;;;;;5030059;28;20413;-75
2022/12/24 05:13:12;;;;;;;1.40;1.30;;;;;;;;;;5030077;28;20124;-75
2022/12/24 05:15:39;;;;;;;2.65;1.42;;;;;;;;;;5030635;28;20410;-76
2022/12/24 05:18:08;;;;;;;2.30;1.40;;;;;;;;;;5030641;28;20491;-75
2022/12/24 05:20:35;;;;;;;2.72;1.50;;;;;;;;;;5030597;28;20067;-75
2022/12/24 05:28:31;;;;;;;1.45;1.35;;;;;;;;;;5020675;28;20050;-75
2022/12/24 05:30:58;;;;;;;2.25;1.40;;;;;;;;;;5030358;28;20049;-74
2022/12/24 05:33:26;;;;;;;2.20;1.40;;;;;;;;;;5029741;28;20056;-75
2022/12/24 05:35:53;;;;;;;2.20;1.30;;;;;;;;;;5030545;28;20060;-76
2022/12/24 05:38:21;;;;;;;1.25;1.10;;;;;;;;;;5034157;28;20057;-75
2022/12/24 05:40:48;;;;;;;2.13;1.40;;;;;;;;;;5033906;28;20136;-76
2022/12/24 05:43:15;;;;;;;2.40;1.20;;;;;;;;;;5034066;28;20413;-75
2022/12/24 05:45:42;;;;;;;2.30;1.40;;;;;;;;;;5035113;28;20156;-76
2022/12/24 05:48:09;;;;;;;2.03;1.15;;;;;;;;;;5033930;28;20088;-75
2022/12/24 05:50:39;;;;;;;1.40;1.20;;;12.90;70.50;;;;;;5034266;28;20057;-75
2022/12/24 05:53:06;;;;;;;1.58;1.20;;;;;;;;;;5034144;28;20132;-75
2022/12/24 05:55:33;;;;;;;2.00;1.30;;;;;;;;;;5015903;28;20141;-75
2022/12/24 05:58:00;;;;;;;2.25;1.20;;;;;;;;;;5013964;28;20136;-75
2022/12/24 06:00:27;;;;;;;1.58;1.13;;;;;;;;;;5014244;28;20062;-75
2022/12/24 06:02:54;;;;;;;2.42;1.30;;;;;;;;;;5014067;28;20050;-75
2022/12/24 06:05:21;;;;;;;2.80;1.25;;;;;;;;;;5015373;28;20388;-75
2022/12/24 06:07:49;;;;;;;2.88;1.40;;;;;;;;;;5014030;28;20152;-75
2022/12/24 06:10:17;;;;;;;2.13;1.30;;;;;;;;;;5031439;28;20107;-77
2022/12/24 06:12:44;;;;;;;1.95;1.25;;;;;;;;;;5033762;28;20115;-75
2022/12/24 06:15:11;;;;;;;2.58;1.48;;;;;;;;;;5033716;28;20162;-76
2022/12/24 06:17:38;;;;;;;2.03;1.30;;;;;;;;;;5033589;28;20144;-76
2022/12/24 06:20:05;;;;;;;2.03;1.30;;;;;;;;;;5033826;28;20065;-75
2022/12/24 06:22:32;;;;;;;1.85;1.30;;;;;;;;;;5032497;28;20067;-75
2022/12/24 06:25:01;;;;;;;3.25;1.55;;;;;;;;;;5013609;28;20076;-75
2022/12/24 06:27:28;;;;;;;2.28;1.33;;;;;;;;;;5014684;28;20060;-75
2022/12/24 06:29:55;;;;;;;2.47;1.23;;;;;;;;;;5033335;28;20140;-77
2022/12/24 06:32:22;;;;;;;2.75;1.77;;;;;;;;;;5033141;28;20136;-75
2022/12/24 06:34:49;;;;;;;2.60;1.40;;;;;;;;;;5033534;28;20148;-76
2022/12/24 06:37:18;;;;;;;2.95;1.30;;;;;;;;;;5032526;28;20139;-75
2022/12/24 06:39:45;;;;;;;2.10;1.20;;;;;;;;;;5032840;28;20060;-75
2022/12/24 06:42:14;;;;;;;2.55;1.23;;;;;;;;;;5033117;28;20057;-75
2022/12/24 06:44:41;;;;;;;3.00;1.58;;;;;;;;;;5032837;28;20056;-75
2022/12/24 06:47:08;;;;;;;2.22;1.20;;;;;;;;;;5032572;28;20059;-76
2022/12/24 06:49:35;;;;;;;2.05;1.67;;;;;;;;;;5027520;28;20061;-75
2022/12/24 06:52:02;;;;;;;2.70;1.30;;;;;;;;;;5026245;28;20052;-75
2022/12/24 06:54:29;;;;;;;1.55;1.10;;;;;;;;;;5032729;28;20045;-75
2022/12/24 06:56:56;;;;;;;3.20;1.33;;;;;;;;;;5032936;28;20068;-75
2022/12/24 06:59:25;;;;;;;2.33;1.20;;;;;;;;;;5033130;28;20138;-75
2022/12/24 07:01:52;;;;;;;2.45;1.30;;;;;;;;;;5032884;28;20124;-75
2022/12/24 07:04:19;;;;;;;3.00;1.52;;;;;;;;;;5032639;28;20116;-75
2022/12/24 07:06:46;;;;;;;4.07;1.40;;;;;;;;;;5032178;28;20057;-75
2022/12/24 07:09:13;;;;;;;1.90;1.23;;;;;;;;;;5032653;28;20079;-75
2022/12/24 07:11:41;;;;;;;1.80;1.27;;;12.80;70.60;;;;;;5032463;28;20068;-77
2022/12/24 07:14:08;;;;;;;1.33;1.17;;;;;;;;;;5032335;28;20128;-75
2022/12/24 07:16:37;;;;;;;2.30;1.30;;;;;;;;;;5019850;28;20495;-74
2022/12/24 07:19:04;;;;;;;2.70;1.20;;;;;;;;;;5027952;28;20486;-74
2022/12/24 07:21:31;;;;;;;2.03;1.30;;;;;;;;;;5032028;28;20546;-75
2022/12/24 07:23:58;;;;;;;2.53;1.30;;;;;;;;;;5031934;28;20077;-75
2022/12/24 07:26:25;;;;;;;2.40;1.25;;;;;;;;;;5023754;28;20077;-75
2022/12/24 07:28:52;;;;;;;3.33;1.40;;;;;;;;;;5020253;28;20049;-75
2022/12/24 07:31:20;;;;;;;2.35;1.25;;;;;;;;;;5021423;28;20059;-75
2022/12/24 07:33:49;;;;;;;2.20;1.20;;;;;;;;;;5022592;28;20421;-77
2022/12/24 07:36:18;;;;;;;3.28;1.50;;;13.00;70.50;;;;;;5016134;28;20057;-75
2022/12/24 07:38:45;;;;;;;3.17;1.30;;;;;;;;;;5018315;28;20464;-76
2022/12/24 07:41:13;;;;;;;2.10;1.20;;;;;;;;;;5020172;28;20144;-75
2022/12/24 07:43:40;;;;;;;2.60;1.25;;;;;;;;;;5027762;28;20053;-75
2022/12/24 07:46:07;;;;;;;2.78;1.65;;;;;;;;;;5032302;28;20061;-75
2022/12/24 07:48:34;;;;;;;1.48;1.17;;;;;;;;;;5032156;28;20498;-75
2022/12/24 07:51:02;;;;;;;2.00;1.20;;;;;;;;;;5031963;28;20057;-75
2022/12/24 07:53:29;;;;;;;2.85;1.20;;;;;;;;;;5031885;28;20052;-75
2022/12/24 07:55:56;;;;;;;2.25;1.25;;;;;;;;;;5032262;28;20827;-75
2022/12/24 07:58:23;;;;;;;2.72;1.10;;;;;;;;;;5032145;28;20410;-75
2022/12/24 08:00:55;;;;;;;2.13;1.35;;;;;;;;;;5025407;28;20060;-75
2022/12/24 08:03:22;;;;;;;2.15;1.10;;;;;;;;;;5017738;28;20058;-75
2022/12/24 08:05:51;;;;;;;2.10;1.10;;;;;;;;;;5021524;28;20053;-75
2022/12/24 08:08:20;;;;;;;3.05;1.20;;;;;;;;;;5021129;28;20422;-76
2022/12/24 08:10:47;;;;;;;2.15;1.10;;;;;;;;;;5020493;28;20054;-75
2022/12/24 08:13:14;;;;;;;2.95;1.50;;;;;;;;;;5022158;28;20627;-75
2022/12/24 08:15:41;;;;;;;2.25;1.30;;;;;;;;;;5024349;28;20045;-75
2022/12/24 08:18:09;;;;;;;3.50;1.30;;;;;;;;;;5022464;28;20067;-76
2022/12/24 08:20:37;;;;;;;2.42;1.38;;;;;;;;;;5021132;28;20413;-75
2022/12/24 08:23:04;;;;;;;3.40;1.42;;;;;;;;;;5021259;28;20409;-77
2022/12/24 08:25:33;;;;;;;2.22;1.08;;;;;;;;;;5020192;28;20052;-75
2022/12/24 08:28:00;;;;;;;3.05;1.23;;;;;;;;;;5021850;28;20144;-75
2022/12/24 08:30:27;;;;;;;2.20;1.08;;;;;;;;;;5022006;28;20144;-75
2022/12/24 08:32:54;;;;;;;1.65;1.13;;;;;;;;;;5019398;28;20136;-75
2022/12/24 08:35:21;;;;;;;1.88;1.05;;;;;;;;;;5021520;28;20056;-76
2022/12/24 08:37:48;;;;;;;3.03;1.30;;;;;;;;;;5024470;28;20063;-75
2022/12/24 08:40:15;;;;;;;3.35;1.30;;;;;;;;;;5022867;28;20063;-75
2022/12/24 08:42:44;;;;;;;2.13;1.50;;;;;;;;;;5020409;28;20056;-76
2022/12/24 08:45:11;;;;;;;2.20;1.30;;;13.90;66.70;;;;;;5012893;28;20045;-76
2022/12/24 08:47:38;;;;;;;3.53;1.23;;;;;;;;;;5016442;28;20466;-75
2022/12/24 08:50:06;;;;;;;2.47;1.20;;;;;;;;;;5022275;28;20053;-77
2022/12/24 08:52:33;;;;;;;4.25;1.40;;;;;;;;;;5016521;28;20054;-74
2022/12/24 08:55:00;;;;;;;2.97;1.23;;;;;;;;;;5030748;28;20045;-75
2022/12/24 08:57:27;;;;;;;2.72;1.33;;;;;;;;;;5030553;28;20063;-74
2022/12/24 08:59:55;;;;;;;2.22;1.27;;;;;;;;;;5030708;28;20115;-75
2022/12/24 09:02:22;;;;;;;2.55;1.20;;;;;;;;;;5030266;28;20132;-75
2022/12/24 09:04:49;;;;;;;2.58;1.25;;;;;;;;;;5030562;28;20049;-74
2022/12/24 09:07:16;;;;;;;2.35;1.38;;;;;;;;;;5030859;28;20524;-75
2022/12/24 09:09:43;;;;;;;2.60;1.15;;;;;;;;;;5022144;28;20488;-75
2022/12/24 09:12:11;;;;;;;2.45;1.30;;;;;;;;;;5020554;28;20049;-79
2022/12/24 09:14:38;;;;;;;2.13;1.20;;;;;;;;;;5016176;28;20053;-77
2022/12/24 09:17:06;;;;;;;3.10;1.30;;;;;;;;;;5011889;28;20057;-75
2022/12/24 09:19:33;;;;;;;3.80;1.60;;;;;;;;;;5026630;28;20570;-75
2022/12/24 09:22:00;;;;;;;2.90;1.13;;;;;;;;;;5024887;28;20056;-75
2022/12/24 09:24:28;;;;;;;1.98;1.10;;;;;;;;;;5010010;28;20053;-75
2022/12/24 09:26:55;;;;;;;2.80;1.25;;;;;;;;;;5016826;28;20064;-75
2022/12/24 09:29:22;;;;;;;2.75;1.00;;;;;;;;;;5025163;28;20068;-75
2022/12/24 09:31:49;;;;;;;1.52;1.00;;;;;;;;;;5023339;28;20132;-76
2022/12/24 09:34:18;;;;;;;2.83;1.35;;;;;;;;;;5017050;28;20049;-75
2022/12/24 09:36:45;;;;;;;2.17;1.20;;;;;;;;;;5014152;28;20136;-76
2022/12/24 09:39:12;;;;;;;2.65;1.20;;;;;;;;;;5021030;28;20494;-75
2022/12/24 09:41:42;;;;;;;2.10;1.20;;;;;;;;;;5029592;28;20504;-75
2022/12/24 09:44:21;;;;;;;2.22;1.25;;;14.40;68.00;;;;;;5029327;28;20048;-77
2022/12/24 09:46:48;;;;;;;2.38;1.30;;;;;;;;;;5018092;28;20056;-75
2022/12/24 09:49:15;;;;;;;2.85;1.15;;;;;;;;;;5024207;28;20053;-77
2022/12/24 09:51:44;;;;;;;3.08;1.10;;;;;;;;;;5020975;28;20133;-75
2022/12/24 09:54:13;;;;;;;4.43;1.58;;;;;;;;;;5010734;28;20049;-75
2022/12/24 09:56:41;;;;;;;3.28;1.50;;;;;;;;;;5008692;28;20391;-75
2022/12/24 09:59:11;;;;;;;2.28;1.35;;;14.50;67.70;;;;;;5009855;28;20518;-74
2022/12/24 10:01:38;;;;;;;2.58;1.23;;;;;;;;;;5008823;28;20062;-75
2022/12/24 10:04:06;;;;;;;2.10;1.13;;;;;;;;;;5012684;28;20046;-77
2022/12/24 10:06:36;;;;;;;2.40;1.20;;;14.50;67.60;;;;;;5022313;28;20502;-75
2022/12/24 10:09:06;;;;;;;2.45;1.15;;;;;;;;;;5017713;28;20475;-75
2022/12/24 10:11:42;;;;;;;1.80;1.20;;;14.50;67.10;;;;;;5017908;28;20060;-77
2022/12/24 10:14:12;;;;;;;3.38;1.10;;;;;;;;;;5009278;28;20392;-75
2022/12/24 10:16:42;;;;;;;3.15;1.20;;;;;;;;;;5012046;28;20057;-75
2022/12/24 10:19:11;;;;;;;1.63;1.10;;;;;;;;;;5026920;28;20137;-75
2022/12/24 10:21:42;;;;;;;3.88;1.23;;;14.60;67.70;;;;;;5028856;28;20169;-75
2022/12/24 10:24:12;;;;;;;1.95;1.17;;;;;;;;;;5031255;28;20092;-75
2022/12/24 10:26:41;;;;;;;1.63;1.10;;;;;;;;;;5031753;28;20063;-75
2022/12/24 10:29:09;;;;;;;2.08;1.23;;;;;;;;;;5032551;28;20156;-76
2022/12/24 10:31:39;;;;;;;2.10;1.10;;;14.50;66.10;;;;;;5032791;28;20383;-75
2022/12/24 10:34:07;;;;;;;4.85;1.10;;;;;;;;;;5029687;28;20060;-76
2022/12/24 10:36:34;;;;;;;1.88;1.10;;;;;;;;;;5020218;28;20058;-75
2022/12/24 10:39:01;;;;;;;3.15;1.38;;;;;;;;;;5012844;28;20061;-75
2022/12/24 10:41:29;;;;;;;3.22;1.25;;;;;;;;;;5012709;28;20067;-75
2022/12/24 10:43:56;;;;;;;2.58;1.20;;;;;;;;;;5017107;28;20641;-75
2022/12/24 10:46:24;;;;;;;1.75;1.10;;;;;;;;;;5020601;28;20483;-75
2022/12/24 10:48:52;;;;;;;3.05;1.52;;;;;;;;;;5024750;28;20148;-77
2022/12/24 10:51:21;;;;;;;2.80;1.30;;;;;;;;;;5025746;28;20474;-75
2022/12/24 10:53:49;;;;;;;2.63;1.17;;;;;;;;;;5020433;28;20053;-75
2022/12/24 10:56:16;;;;;;;1.85;1.20;;;;;;;;;;5016302;28;20052;-75
2022/12/24 10:58:45;;;;;;;2.35;1.00;;;;;;;;;;5016125;28;20080;-75
2022/12/24 11:01:12;;;;;;;2.58;1.25;;;;;;;;;;5022270;28;20055;-75
2022/12/24 11:03:41;;;;;;;3.45;1.42;;;;;;;;;;5016776;28;20064;-75
2022/12/24 11:06:09;;;;;;;3.13;1.20;;;;;;;;;;5015052;28;20081;-75
2022/12/24 11:08:36;;;;;;;2.13;1.10;;;;;;;;;;5020851;28;20057;-75
2022/12/24 11:11:03;;;;;;;4.57;1.48;;;;;;;;;;5031624;28;20084;-75
2022/12/24 11:13:31;;;;;;;4.45;1.48;;;;;;;;;;5031139;28;20137;-75
2022/12/24 11:16:06;;;;;;;3.20;1.35;;;;;;;;;;5027871;28;20235;-75
2022/12/24 11:18:34;;;;;;;3.00;1.25;;;14.30;67.20;;;;;;5023291;28;20137;-77
2022/12/24 11:21:02;;;;;;;1.77;1.05;;;;;;;;;;5022117;28;20700;-74
2022/12/24 11:23:29;;;;;;;3.00;1.25;;;;;;;;;;5022617;28;20060;-75
2022/12/24 11:25:56;;;;;;;2.40;1.30;;;;;;;;;;5020733;28;20053;-77
2022/12/24 11:28:23;;;;;;;2.25;1.13;;;;;;;;;;5023250;28;20128;-76
2022/12/24 11:31:01;;;;;;;2.63;1.30;;;;;;;;;;5021969;28;20058;-76
2022/12/24 11:33:29;;;;;;;2.58;1.13;;;;;;;;;;5019338;28;20054;-76
2022/12/24 11:36:05;;;;;;;2.25;1.30;;;;;;;;;;5032605;28;20063;-76
2022/12/24 11:38:33;;;;;;;1.77;1.20;;;;;;;;;;5031447;28;20401;-75
2022/12/24 11:41:01;;;;;;;2.80;1.45;;;;;;;;;;5029673;28;20053;-76
2022/12/24 11:43:43;;;;;;;2.83;1.30;;;;;;;;;;5029752;28;20051;-75
2022/12/24 11:46:20;;;;;;;3.15;1.20;;;;;;;;;;5029976;28;20140;-75
2022/12/24 11:48:48;;;;;;;2.42;1.25;;;;;;;;;;5029886;28;20057;-75
2022/12/24 11:51:23;;;;;;;2.42;1.20;;;;;;;;;;5030380;28;20500;-76
2022/12/24 11:53:50;;;;;;;2.00;1.10;;;;;;;;;;5031084;28;20136;-75
2022/12/24 11:56:24;;;;;;;2.65;1.13;;;14.00;68.90;;;;;;5031599;28;20056;-75
2022/12/24 11:58:53;;;;;;;2.38;1.20;;;14.10;67.50;;;;;;5032086;28;20504;-75
2022/12/24 12:01:21;;;;;;;2.65;1.25;;;;;;;;;;5032046;28;20063;-75
2022/12/24 12:03:50;;;;;;;2.03;1.10;;;13.90;67.40;;;;;;5013629;28;20467;-75
2022/12/24 12:06:21;;;;;;;3.30;1.30;;;;;;;;;;5011926;28;20046;-75
2022/12/24 12:08:48;;;;;;;2.53;1.40;;;;;;;;;;5012277;28;20054;-75
2022/12/24 12:11:15;;;;;;;1.17;0.93;;;;;;;;;;5024430;28;20096;-75
2022/12/24 12:13:42;;;;;;;2.00;1.10;;;;;;;;;;5031504;28;20083;-75
2022/12/24 12:16:13;;;;;;;2.53;1.23;;;;;;;;;;5030942;28;20442;-76
2022/12/24 12:18:40;;;;;;;2.78;1.17;;;;;;;;;;5031419;28;20061;-75
2022/12/24 12:21:11;;;;;;;2.30;1.20;;;13.80;69.30;;;;;;5031435;28;20053;-75
2022/12/24 12:23:40;;;;;;;2.13;1.10;;;13.90;67.90;;;;;;5031391;28;20541;-75
2022/12/24 12:26:08;;;;;;;2.58;1.20;;;;;;;;;;5031329;28;20395;-77
2022/12/24 12:28:36;;;;;;;3.55;1.20;;;;;;;;;;5031123;28;20061;-75
2022/12/24 12:31:04;;;;;;;3.40;1.38;;;;;;;;;;5031003;28;20136;-75
2022/12/24 12:33:31;;;;;;;2.28;1.30;;;;;;;;;;5011715;28;20054;-75
2022/12/24 12:35:59;;;;;;;2.15;1.23;;;;;;;;;;5012801;28;20054;-75
2022/12/24 12:38:28;;;;;;;2.80;1.35;;;;;;;;;;5030825;28;20057;-75
2022/12/24 12:41:01;;;;;;;2.88;1.38;;;13.90;69.50;;;;;;5031329;28;20120;-75
2022/12/24 12:43:40;;;;;;;2.55;1.30;;;;;;;;;;5031259;28;20656;-75
2022/12/24 12:46:08;;;;;;;3.40;1.25;;;;;;;;;;5029426;28;20041;-75
2022/12/24 12:48:40;;;;;;;3.03;1.30;;;;;;;;;;5030783;28;20056;-75
2022/12/24 12:51:08;;;;;;;2.75;1.20;;;;;;;;;;5020104;28;20059;-75
2022/12/24 12:53:56;;;;;;;4.05;1.20;;;;;;;;;;5027825;28;20469;-75
2022/12/24 12:56:27;;;;;;;2.03;1.20;;;;;;;;;;5025944;28;20132;-75
2022/12/24 12:58:57;;;;;;;2.80;1.40;;;13.90;69.40;;;;;;5026074;28;20711;-76
2022/12/24 13:01:26;;;;;;;2.38;1.40;;;13.90;69.30;;;;;;5022020;28;20049;-75
2022/12/24 13:04:11;;;;;;;2.00;1.20;;;;;;;;;;5026779;28;20049;-75
2022/12/24 13:07:15;;;;;;;3.47;1.40;;;13.90;69.40;;;;;;4974673;28;20072;-75
2022/12/24 13:09:57;;;;;;;2.63;1.30;;;;;;;;;;5003125;28;20129;-75
2022/12/24 13:12:36;;;;;;;2.72;1.10;;;;;;;;;;5026302;28;20416;-75
2022/12/24 13:15:07;;;;;;;2.40;1.17;;;;;;;;;;5012825;28;20064;-76
2022/12/24 13:17:55;;;;;;;3.33;1.45;;;13.90;69.30;;;;;;5016355;28;20226;-75
2022/12/24 13:20:26;;;;;;;2.67;1.30;;;;;;;;;;5019981;28;20136;-75
2022/12/24 13:22:55;;;;;;;3.10;1.13;;;;;;;;;;5018166;28;20129;-75
2022/12/24 13:25:23;;;;;;;2.40;1.20;;;13.90;67.90;;;;;;5019207;28;20050;-75
2022/12/24 13:27:51;;;;;;;3.55;1.25;;;;;;;;;;5019950;28;20538;-75
2022/12/24 13:30:39;;;;;;;3.50;1.20;;;;;;;;;;5013846;28;20049;-75
2022/12/24 13:33:09;;;;;;;2.00;1.02;;;;;;;;;;5015153;28;20414;-75
2022/12/24 13:35:36;;;;;;;2.15;1.00;;;;;;;;;;5030048;28;20045;-76
2022/12/24 13:38:41;;;;;;;3.25;1.15;;;13.90;65.90;;;;;;5020818;28;20061;-75
2022/12/24 13:41:48;;;;;;;3.05;1.23;;;13.90;66.00;;;;;;5044519;28;20128;-76
2022/12/24 13:44:21;;;;;;;2.08;1.30;;;;;;;;;;5020035;28;20064;-75
2022/12/24 13:46:49;;;;;;;3.13;1.10;;;;;;;;;;5023102;28;20068;-77
2022/12/24 13:49:17;;;;;;;2.45;1.27;;;;;;;;;;5016631;28;20053;-75
2022/12/24 13:51:44;;;;;;;2.65;1.30;;;;;;;;;;5021689;28;20071;-74
2022/12/24 13:54:11;;;;;;;1.95;1.10;;;;;;;;;;5021588;28;20059;-75
2022/12/24 13:56:38;;;;;;;2.30;1.27;;;;;;;;;;5013381;28;20045;-76
2022/12/24 13:59:12;;;;;;;2.58;1.00;;;;;;;;;;5033108;28;20065;-75
2022/12/24 14:01:47;;;;;;;2.95;1.13;;;;;;;;;;5021707;28;20053;-74
2022/12/24 14:04:26;;;;;;;2.60;1.15;;;;;;;;;;5019554;28;20057;-76
2022/12/24 14:06:53;;;;;;;3.05;1.23;;;;;;;;;;5029315;28;20409;-75
2022/12/24 14:09:22;;;;;;;2.90;1.27;;;13.90;67.80;;;;;;5032441;28;20885;-75
2022/12/24 14:12:13;;;;;;;2.72;1.40;;;;;;;;;;5029127;28;20077;-77
2022/12/24 14:14:40;;;;;;;2.45;1.30;;;;;;;;;;5005576;28;20052;-75
2022/12/24 14:17:11;;;;;;;3.10;1.55;;;;;;;;;;5033826;28;20064;-75
2022/12/24 14:19:39;;;;;;;2.90;1.13;;;;;;;;;;5012549;28;20061;-75
2022/12/24 14:22:27;;;;;;;1.83;1.10;;;14.00;68.80;;;;;;5015477;28;20149;-75
2022/12/24 14:24:56;;;;;;;2.13;1.05;;;;;;;;;;5030007;28;20045;-75
2022/12/24 14:27:25;;;;;;;3.03;1.20;;;;;;;;;;5024900;28;20050;-75
2022/12/24 14:29:53;;;;;;;2.05;1.10;;;;;;;;;;4685939;28;10001132;-76
2022/12/24 14:32:21;;;;;;;3.50;1.10;;;;;;;;;;4510457;28;10000673;-75
2022/12/24 14:35:07;;;;;;;2.50;1.15;;;14.20;68.30;;;;;;5032539;28;20132;-75
2022/12/24 14:37:35;;;;;;;1.30;0.90;;;;;;;;;;5031909;28;20052;-75
2022/12/24 14:40:02;;;;;;;2.67;1.50;;;;;;;;;;5031670;28;20068;-76
2022/12/24 14:42:31;;;;;;;2.83;1.20;;;;;;;;;;5032050;28;20474;-77
2022/12/24 14:45:00;;;;;;;3.50;1.40;;;;;;;;;;5028656;28;20049;-77
2022/12/24 14:47:29;;;;;;;2.38;1.05;;;;;;;;;;5022210;28;20132;-77
2022/12/24 14:50:03;;;;;;;3.60;1.20;;;;;;;;;;5021263;28;20051;-77